sensor_id;sensor_type;location;lat;lon;timestamp;P1;durP1;ratioP1;P2;durP2;ratioP2
47778;SDS011;33538;48.432;11.350;2023-06-14T00:01:52;5.25;;;3.10;;
47778;SDS011;33538;48.432;11.350;2023-06-14T00:04:19;4.30;;;2.97;;
47778;SDS011;33538;48.432;11.350;2023-06-14T00:06:46;4.40;;;3.00;;
47778;SDS011;33538;48.432;11.350;2023-06-14T00:09:14;4.07;;;3.10;;
47778;SDS011;33538;48.432;11.350;2023-06-14T00:11:41;3.80;;;3.03;;
47778;SDS011;33538;48.432;11.350;2023-06-14T00:14:08;5.22;;;3.42;;
47778;SDS011;33538;48.432;11.350;2023-06-14T00:16:35;4.65;;;2.90;;
47778;SDS011;33538;48.432;11.350;2023-06-14T00:19:02;4.22;;;3.03;;
47778;SDS011;33538;48.432;11.350;2023-06-14T00:21:29;4.43;;;3.25;;
47778;SDS011;33538;48.432;11.350;2023-06-14T00:23:57;4.72;;;3.00;;
47778;SDS011;33538;48.432;11.350;2023-06-14T00:26:25;4.07;;;3.20;;
47778;SDS011;33538;48.432;11.350;2023-06-14T00:28:52;8.45;;;2.78;;
47778;SDS011;33538;48.432;11.350;2023-06-14T00:31:19;3.65;;;2.97;;
47778;SDS011;33538;48.432;11.350;2023-06-14T00:33:46;6.25;;;3.30;;
47778;SDS011;33538;48.432;11.350;2023-06-14T00:36:13;4.72;;;3.10;;
47778;SDS011;33538;48.432;11.350;2023-06-14T00:38:40;5.13;;;2.88;;
47778;SDS011;33538;48.432;11.350;2023-06-14T00:41:07;4.65;;;3.25;;
47778;SDS011;33538;48.432;11.350;2023-06-14T00:43:35;4.32;;;2.55;;
47778;SDS011;33538;48.432;11.350;2023-06-14T00:46:02;3.33;;;2.88;;
47778;SDS011;33538;48.432;11.350;2023-06-14T00:48:29;4.45;;;3.25;;
47778;SDS011;33538;48.432;11.350;2023-06-14T00:50:56;4.93;;;3.25;;
47778;SDS011;33538;48.432;11.350;2023-06-14T00:53:24;4.05;;;3.15;;
47778;SDS011;33538;48.432;11.350;2023-06-14T00:55:50;4.78;;;3.47;;
47778;SDS011;33538;48.432;11.350;2023-06-14T00:58:17;4.68;;;3.22;;
47778;SDS011;33538;48.432;11.350;2023-06-14T01:00:46;7.15;;;4.00;;
47778;SDS011;33538;48.432;11.350;2023-06-14T01:03:13;5.15;;;3.97;;
47778;SDS011;33538;48.432;11.350;2023-06-14T01:05:40;6.20;;;3.90;;
47778;SDS011;33538;48.432;11.350;2023-06-14T01:08:11;5.05;;;3.65;;
47778;SDS011;33538;48.432;11.350;2023-06-14T01:10:47;5.47;;;3.80;;
47778;SDS011;33538;48.432;11.350;2023-06-14T01:13:19;4.03;;;3.17;;
47778;SDS011;33538;48.432;11.350;2023-06-14T01:15:49;5.70;;;3.13;;
47778;SDS011;33538;48.432;11.350;2023-06-14T01:18:17;4.25;;;3.38;;
47778;SDS011;33538;48.432;11.350;2023-06-14T01:20:44;5.90;;;3.53;;
47778;SDS011;33538;48.432;11.350;2023-06-14T01:23:13;5.57;;;3.53;;
47778;SDS011;33538;48.432;11.350;2023-06-14T01:25:40;8.95;;;3.70;;
47778;SDS011;33538;48.432;11.350;2023-06-14T01:28:07;6.82;;;3.72;;
47778;SDS011;33538;48.432;11.350;2023-06-14T01:30:34;5.13;;;3.50;;
47778;SDS011;33538;48.432;11.350;2023-06-14T01:33:02;5.40;;;3.85;;
47778;SDS011;33538;48.432;11.350;2023-06-14T01:35:30;5.43;;;3.83;;
47778;SDS011;33538;48.432;11.350;2023-06-14T01:37:57;5.90;;;3.70;;
47778;SDS011;33538;48.432;11.350;2023-06-14T01:40:27;6.03;;;3.53;;
47778;SDS011;33538;48.432;11.350;2023-06-14T01:42:54;4.75;;;3.20;;
47778;SDS011;33538;48.432;11.350;2023-06-14T01:45:21;4.85;;;3.13;;
47778;SDS011;33538;48.432;11.350;2023-06-14T01:47:48;4.25;;;3.03;;
47778;SDS011;33538;48.432;11.350;2023-06-14T01:50:16;4.53;;;2.88;;
47778;SDS011;33538;48.432;11.350;2023-06-14T01:52:44;5.78;;;3.10;;
47778;SDS011;33538;48.432;11.350;2023-06-14T01:55:11;4.65;;;2.63;;
47778;SDS011;33538;48.432;11.350;2023-06-14T01:57:39;6.80;;;2.95;;
47778;SDS011;33538;48.432;11.350;2023-06-14T02:00:06;3.75;;;2.63;;
47778;SDS011;33538;48.432;11.350;2023-06-14T02:02:34;5.03;;;3.40;;
47778;SDS011;33538;48.432;11.350;2023-06-14T02:05:01;7.32;;;3.08;;
47778;SDS011;33538;48.432;11.350;2023-06-14T02:07:28;5.45;;;3.35;;
47778;SDS011;33538;48.432;11.350;2023-06-14T02:09:55;6.80;;;3.28;;
47778;SDS011;33538;48.432;11.350;2023-06-14T02:12:22;4.35;;;3.20;;
47778;SDS011;33538;48.432;11.350;2023-06-14T02:14:50;4.22;;;3.28;;
47778;SDS011;33538;48.432;11.350;2023-06-14T02:17:17;6.28;;;4.00;;
47778;SDS011;33538;48.432;11.350;2023-06-14T02:19:43;4.97;;;3.63;;
47778;SDS011;33538;48.432;11.350;2023-06-14T02:22:10;4.45;;;3.38;;
47778;SDS011;33538;48.432;11.350;2023-06-14T02:24:37;5.03;;;3.70;;
47778;SDS011;33538;48.432;11.350;2023-06-14T02:27:04;4.28;;;3.20;;
47778;SDS011;33538;48.432;11.350;2023-06-14T02:29:31;4.53;;;3.25;;
47778;SDS011;33538;48.432;11.350;2023-06-14T02:31:59;6.32;;;3.80;;
47778;SDS011;33538;48.432;11.350;2023-06-14T02:34:26;7.82;;;4.10;;
47778;SDS011;33538;48.432;11.350;2023-06-14T02:36:53;7.13;;;4.57;;
47778;SDS011;33538;48.432;11.350;2023-06-14T02:39:20;5.75;;;3.75;;
47778;SDS011;33538;48.432;11.350;2023-06-14T02:41:46;7.70;;;4.32;;
47778;SDS011;33538;48.432;11.350;2023-06-14T02:44:13;6.18;;;4.05;;
47778;SDS011;33538;48.432;11.350;2023-06-14T02:46:40;6.20;;;3.92;;
47778;SDS011;33538;48.432;11.350;2023-06-14T02:49:08;4.20;;;3.67;;
47778;SDS011;33538;48.432;11.350;2023-06-14T02:51:35;6.22;;;3.97;;
47778;SDS011;33538;48.432;11.350;2023-06-14T02:54:02;6.53;;;3.80;;
47778;SDS011;33538;48.432;11.350;2023-06-14T02:56:28;6.32;;;3.88;;
47778;SDS011;33538;48.432;11.350;2023-06-14T02:58:55;8.52;;;4.30;;
47778;SDS011;33538;48.432;11.350;2023-06-14T03:01:22;5.32;;;3.53;;
47778;SDS011;33538;48.432;11.350;2023-06-14T03:03:51;5.57;;;4.07;;
47778;SDS011;33538;48.432;11.350;2023-06-14T03:06:19;5.03;;;3.30;;
47778;SDS011;33538;48.432;11.350;2023-06-14T03:08:46;7.43;;;3.50;;
47778;SDS011;33538;48.432;11.350;2023-06-14T03:11:13;6.32;;;3.95;;
47778;SDS011;33538;48.432;11.350;2023-06-14T03:13:39;6.70;;;4.00;;
47778;SDS011;33538;48.432;11.350;2023-06-14T03:16:06;5.82;;;3.83;;
47778;SDS011;33538;48.432;11.350;2023-06-14T03:18:33;7.07;;;4.10;;
47778;SDS011;33538;48.432;11.350;2023-06-14T03:21:00;5.22;;;3.90;;
47778;SDS011;33538;48.432;11.350;2023-06-14T03:23:28;5.30;;;3.85;;
47778;SDS011;33538;48.432;11.350;2023-06-14T03:25:55;5.05;;;3.40;;
47778;SDS011;33538;48.432;11.350;2023-06-14T03:28:22;4.93;;;3.28;;
47778;SDS011;33538;48.432;11.350;2023-06-14T03:30:48;5.30;;;3.42;;
47778;SDS011;33538;48.432;11.350;2023-06-14T03:33:15;6.05;;;3.70;;
47778;SDS011;33538;48.432;11.350;2023-06-14T03:35:42;6.85;;;3.80;;
47778;SDS011;33538;48.432;11.350;2023-06-14T03:38:09;8.93;;;4.32;;
47778;SDS011;33538;48.432;11.350;2023-06-14T03:40:38;8.65;;;4.65;;
47778;SDS011;33538;48.432;11.350;2023-06-14T03:43:04;7.57;;;3.88;;
47778;SDS011;33538;48.432;11.350;2023-06-14T03:45:31;7.47;;;3.60;;
47778;SDS011;33538;48.432;11.350;2023-06-14T03:47:58;6.50;;;3.85;;
47778;SDS011;33538;48.432;11.350;2023-06-14T03:50:25;7.53;;;3.75;;
47778;SDS011;33538;48.432;11.350;2023-06-14T03:52:52;5.80;;;3.72;;
47778;SDS011;33538;48.432;11.350;2023-06-14T03:55:18;4.57;;;3.17;;
47778;SDS011;33538;48.432;11.350;2023-06-14T03:57:49;4.60;;;3.35;;
47778;SDS011;33538;48.432;11.350;2023-06-14T04:00:17;6.85;;;3.58;;
47778;SDS011;33538;48.432;11.350;2023-06-14T04:02:44;5.35;;;3.10;;
47778;SDS011;33538;48.432;11.350;2023-06-14T04:05:11;4.05;;;2.72;;
47778;SDS011;33538;48.432;11.350;2023-06-14T04:07:38;7.63;;;3.47;;
47778;SDS011;33538;48.432;11.350;2023-06-14T04:10:06;4.88;;;2.92;;
47778;SDS011;33538;48.432;11.350;2023-06-14T04:12:33;4.57;;;2.97;;
47778;SDS011;33538;48.432;11.350;2023-06-14T04:15:01;5.93;;;3.45;;
47778;SDS011;33538;48.432;11.350;2023-06-14T04:17:47;5.95;;;3.30;;
47778;SDS011;33538;48.432;11.350;2023-06-14T04:20:14;7.80;;;3.70;;
47778;SDS011;33538;48.432;11.350;2023-06-14T04:22:41;5.38;;;3.08;;
47778;SDS011;33538;48.432;11.350;2023-06-14T04:25:08;9.15;;;3.80;;
47778;SDS011;33538;48.432;11.350;2023-06-14T04:27:34;10.45;;;4.63;;
47778;SDS011;33538;48.432;11.350;2023-06-14T04:30:03;14.52;;;4.95;;
47778;SDS011;33538;48.432;11.350;2023-06-14T04:32:30;15.35;;;5.50;;
47778;SDS011;33538;48.432;11.350;2023-06-14T04:34:57;10.02;;;3.88;;
47778;SDS011;33538;48.432;11.350;2023-06-14T04:37:25;11.55;;;4.85;;
47778;SDS011;33538;48.432;11.350;2023-06-14T04:39:51;8.00;;;3.92;;
47778;SDS011;33538;48.432;11.350;2023-06-14T04:42:18;7.32;;;4.00;;
47778;SDS011;33538;48.432;11.350;2023-06-14T04:44:45;8.52;;;4.40;;
47778;SDS011;33538;48.432;11.350;2023-06-14T04:47:13;5.78;;;3.55;;
47778;SDS011;33538;48.432;11.350;2023-06-14T04:49:40;8.07;;;4.40;;
47778;SDS011;33538;48.432;11.350;2023-06-14T04:52:07;6.65;;;3.88;;
47778;SDS011;33538;48.432;11.350;2023-06-14T04:54:34;5.35;;;3.20;;
47778;SDS011;33538;48.432;11.350;2023-06-14T04:57:01;9.15;;;3.80;;
47778;SDS011;33538;48.432;11.350;2023-06-14T04:59:27;8.75;;;3.97;;
47778;SDS011;33538;48.432;11.350;2023-06-14T05:01:54;5.93;;;3.45;;
47778;SDS011;33538;48.432;11.350;2023-06-14T05:04:22;7.43;;;3.25;;
47778;SDS011;33538;48.432;11.350;2023-06-14T05:06:49;6.38;;;3.22;;
47778;SDS011;33538;48.432;11.350;2023-06-14T05:09:16;7.22;;;2.97;;
47778;SDS011;33538;48.432;11.350;2023-06-14T05:11:43;5.53;;;2.97;;
47778;SDS011;33538;48.432;11.350;2023-06-14T05:14:10;6.28;;;3.25;;
47778;SDS011;33538;48.432;11.350;2023-06-14T05:16:37;4.20;;;3.17;;
47778;SDS011;33538;48.432;11.350;2023-06-14T05:19:04;4.97;;;3.30;;
47778;SDS011;33538;48.432;11.350;2023-06-14T05:21:32;6.07;;;3.10;;
47778;SDS011;33538;48.432;11.350;2023-06-14T05:24:05;9.70;;;3.03;;
47778;SDS011;33538;48.432;11.350;2023-06-14T05:26:33;5.25;;;3.25;;
47778;SDS011;33538;48.432;11.350;2023-06-14T05:28:59;4.85;;;3.30;;
47778;SDS011;33538;48.432;11.350;2023-06-14T05:31:26;6.20;;;3.53;;
47778;SDS011;33538;48.432;11.350;2023-06-14T05:33:53;5.35;;;2.97;;
47778;SDS011;33538;48.432;11.350;2023-06-14T05:36:20;3.85;;;2.70;;
47778;SDS011;33538;48.432;11.350;2023-06-14T05:38:48;4.85;;;3.15;;
47778;SDS011;33538;48.432;11.350;2023-06-14T05:41:15;4.95;;;2.78;;
47778;SDS011;33538;48.432;11.350;2023-06-14T05:43:42;5.55;;;2.80;;
47778;SDS011;33538;48.432;11.350;2023-06-14T05:46:09;6.88;;;3.40;;
47778;SDS011;33538;48.432;11.350;2023-06-14T05:48:36;5.80;;;3.08;;
47778;SDS011;33538;48.432;11.350;2023-06-14T05:51:03;4.35;;;2.72;;
47778;SDS011;33538;48.432;11.350;2023-06-14T05:53:29;4.75;;;2.90;;
47778;SDS011;33538;48.432;11.350;2023-06-14T05:55:58;7.30;;;2.78;;
47778;SDS011;33538;48.432;11.350;2023-06-14T05:58:24;4.90;;;2.63;;
47778;SDS011;33538;48.432;11.350;2023-06-14T06:00:51;3.55;;;2.40;;
47778;SDS011;33538;48.432;11.350;2023-06-14T06:03:18;3.38;;;2.45;;
47778;SDS011;33538;48.432;11.350;2023-06-14T06:05:45;6.85;;;2.88;;
47778;SDS011;33538;48.432;11.350;2023-06-14T06:08:12;3.97;;;2.70;;
47778;SDS011;33538;48.432;11.350;2023-06-14T06:10:39;4.78;;;2.30;;
47778;SDS011;33538;48.432;11.350;2023-06-14T06:13:07;6.07;;;2.55;;
47778;SDS011;33538;48.432;11.350;2023-06-14T06:15:37;3.95;;;2.67;;
47778;SDS011;33538;48.432;11.350;2023-06-14T06:18:03;5.38;;;2.90;;
47778;SDS011;33538;48.432;11.350;2023-06-14T06:20:30;5.30;;;2.42;;
47778;SDS011;33538;48.432;11.350;2023-06-14T06:22:57;6.07;;;2.67;;
47778;SDS011;33538;48.432;11.350;2023-06-14T06:25:25;5.30;;;2.65;;
47778;SDS011;33538;48.432;11.350;2023-06-14T06:27:52;4.97;;;2.60;;
47778;SDS011;33538;48.432;11.350;2023-06-14T06:30:20;4.00;;;2.58;;
47778;SDS011;33538;48.432;11.350;2023-06-14T06:32:47;4.40;;;2.35;;
47778;SDS011;33538;48.432;11.350;2023-06-14T06:35:14;5.25;;;2.67;;
47778;SDS011;33538;48.432;11.350;2023-06-14T06:37:41;4.82;;;3.10;;
47778;SDS011;33538;48.432;11.350;2023-06-14T06:40:09;4.28;;;2.38;;
47778;SDS011;33538;48.432;11.350;2023-06-14T06:42:36;7.15;;;2.88;;
47778;SDS011;33538;48.432;11.350;2023-06-14T06:45:03;3.67;;;2.30;;
47778;SDS011;33538;48.432;11.350;2023-06-14T06:47:31;5.85;;;2.17;;
47778;SDS011;33538;48.432;11.350;2023-06-14T06:49:58;5.07;;;2.75;;
47778;SDS011;33538;48.432;11.350;2023-06-14T06:52:25;5.47;;;2.50;;
47778;SDS011;33538;48.432;11.350;2023-06-14T06:54:52;4.65;;;3.00;;
47778;SDS011;33538;48.432;11.350;2023-06-14T06:57:19;4.47;;;2.38;;
47778;SDS011;33538;48.432;11.350;2023-06-14T06:59:45;4.35;;;2.55;;
47778;SDS011;33538;48.432;11.350;2023-06-14T07:02:12;4.90;;;2.45;;
47778;SDS011;33538;48.432;11.350;2023-06-14T07:04:40;4.38;;;2.38;;
47778;SDS011;33538;48.432;11.350;2023-06-14T07:07:07;4.30;;;2.40;;
47778;SDS011;33538;48.432;11.350;2023-06-14T07:09:34;2.70;;;2.35;;
47778;SDS011;33538;48.432;11.350;2023-06-14T07:12:01;8.40;;;2.58;;
47778;SDS011;33538;48.432;11.350;2023-06-14T07:14:27;5.68;;;2.30;;
47778;SDS011;33538;48.432;11.350;2023-06-14T07:16:54;5.25;;;2.35;;
47778;SDS011;33538;48.432;11.350;2023-06-14T07:19:21;3.75;;;2.13;;
47778;SDS011;33538;48.432;11.350;2023-06-14T07:21:49;5.60;;;2.10;;
47778;SDS011;33538;48.432;11.350;2023-06-14T07:24:16;4.05;;;2.50;;
47778;SDS011;33538;48.432;11.350;2023-06-14T07:26:43;5.43;;;2.45;;
47778;SDS011;33538;48.432;11.350;2023-06-14T07:29:10;3.97;;;2.70;;
47778;SDS011;33538;48.432;11.350;2023-06-14T07:31:36;3.30;;;2.05;;
47778;SDS011;33538;48.432;11.350;2023-06-14T07:34:03;5.53;;;2.33;;
47778;SDS011;33538;48.432;11.350;2023-06-14T07:36:30;3.83;;;2.30;;
47778;SDS011;33538;48.432;11.350;2023-06-14T07:38:58;4.70;;;2.33;;
47778;SDS011;33538;48.432;11.350;2023-06-14T07:41:25;3.72;;;2.20;;
47778;SDS011;33538;48.432;11.350;2023-06-14T07:43:52;2.92;;;2.08;;
47778;SDS011;33538;48.432;11.350;2023-06-14T07:46:19;3.58;;;2.40;;
47778;SDS011;33538;48.432;11.350;2023-06-14T07:48:45;3.15;;;1.70;;
47778;SDS011;33538;48.432;11.350;2023-06-14T07:51:12;2.65;;;2.10;;
47778;SDS011;33538;48.432;11.350;2023-06-14T07:53:39;4.13;;;2.35;;
47778;SDS011;33538;48.432;11.350;2023-06-14T07:56:07;3.65;;;2.30;;
47778;SDS011;33538;48.432;11.350;2023-06-14T07:58:34;3.97;;;2.05;;
47778;SDS011;33538;48.432;11.350;2023-06-14T08:01:01;3.22;;;2.38;;
47778;SDS011;33538;48.432;11.350;2023-06-14T08:03:28;4.40;;;2.35;;
47778;SDS011;33538;48.432;11.350;2023-06-14T08:05:55;4.45;;;2.22;;
47778;SDS011;33538;48.432;11.350;2023-06-14T08:08:22;5.95;;;2.42;;
47778;SDS011;33538;48.432;11.350;2023-06-14T08:10:48;3.72;;;1.88;;
47778;SDS011;33538;48.432;11.350;2023-06-14T08:13:16;3.42;;;1.70;;
47778;SDS011;33538;48.432;11.350;2023-06-14T08:15:43;6.22;;;2.17;;
47778;SDS011;33538;48.432;11.350;2023-06-14T08:18:12;4.40;;;2.20;;
47778;SDS011;33538;48.432;11.350;2023-06-14T08:20:39;3.80;;;2.50;;
47778;SDS011;33538;48.432;11.350;2023-06-14T08:23:06;6.38;;;2.28;;
47778;SDS011;33538;48.432;11.350;2023-06-14T08:25:32;4.30;;;2.22;;
47778;SDS011;33538;48.432;11.350;2023-06-14T08:27:59;3.33;;;2.10;;
47778;SDS011;33538;48.432;11.350;2023-06-14T08:30:27;2.58;;;2.08;;
47778;SDS011;33538;48.432;11.350;2023-06-14T08:32:54;6.75;;;1.90;;
47778;SDS011;33538;48.432;11.350;2023-06-14T08:35:39;2.58;;;1.95;;
47778;SDS011;33538;48.432;11.350;2023-06-14T08:38:06;5.25;;;2.40;;
47778;SDS011;33538;48.432;11.350;2023-06-14T08:40:33;2.58;;;2.05;;
47778;SDS011;33538;48.432;11.350;2023-06-14T08:43:03;3.72;;;1.88;;
47778;SDS011;33538;48.432;11.350;2023-06-14T08:45:32;3.10;;;2.22;;
47778;SDS011;33538;48.432;11.350;2023-06-14T08:47:58;3.40;;;1.92;;
47778;SDS011;33538;48.432;11.350;2023-06-14T08:50:27;3.92;;;2.00;;
47778;SDS011;33538;48.432;11.350;2023-06-14T08:52:59;3.70;;;1.92;;
47778;SDS011;33538;48.432;11.350;2023-06-14T08:55:27;4.05;;;2.13;;
47778;SDS011;33538;48.432;11.350;2023-06-14T08:57:54;3.97;;;2.17;;
47778;SDS011;33538;48.432;11.350;2023-06-14T09:00:23;3.83;;;1.98;;
47778;SDS011;33538;48.432;11.350;2023-06-14T09:02:51;3.63;;;1.95;;
47778;SDS011;33538;48.432;11.350;2023-06-14T09:05:18;2.63;;;1.90;;
47778;SDS011;33538;48.432;11.350;2023-06-14T09:07:45;3.50;;;2.20;;
47778;SDS011;33538;48.432;11.350;2023-06-14T09:10:13;2.17;;;1.63;;
47778;SDS011;33538;48.432;11.350;2023-06-14T09:12:41;3.22;;;1.98;;
47778;SDS011;33538;48.432;11.350;2023-06-14T09:15:08;3.22;;;2.20;;
47778;SDS011;33538;48.432;11.350;2023-06-14T09:17:36;2.42;;;2.00;;
47778;SDS011;33538;48.432;11.350;2023-06-14T09:20:05;3.90;;;2.22;;
47778;SDS011;33538;48.432;11.350;2023-06-14T09:22:33;4.05;;;2.40;;
47778;SDS011;33538;48.432;11.350;2023-06-14T09:25:00;3.97;;;2.15;;
47778;SDS011;33538;48.432;11.350;2023-06-14T09:27:27;3.67;;;2.45;;
47778;SDS011;33538;48.432;11.350;2023-06-14T09:29:54;7.10;;;2.30;;
47778;SDS011;33538;48.432;11.350;2023-06-14T09:32:21;2.40;;;1.70;;
47778;SDS011;33538;48.432;11.350;2023-06-14T09:34:49;2.75;;;1.95;;
47778;SDS011;33538;48.432;11.350;2023-06-14T09:37:27;4.38;;;2.00;;
47778;SDS011;33538;48.432;11.350;2023-06-14T09:39:55;2.42;;;2.03;;
47778;SDS011;33538;48.432;11.350;2023-06-14T09:42:22;4.93;;;2.45;;
47778;SDS011;33538;48.432;11.350;2023-06-14T09:44:49;3.05;;;1.90;;
47778;SDS011;33538;48.432;11.350;2023-06-14T09:47:17;2.30;;;1.80;;
47778;SDS011;33538;48.432;11.350;2023-06-14T09:49:44;4.72;;;2.10;;
47778;SDS011;33538;48.432;11.350;2023-06-14T09:52:13;2.53;;;1.80;;
47778;SDS011;33538;48.432;11.350;2023-06-14T09:54:42;2.70;;;2.10;;
47778;SDS011;33538;48.432;11.350;2023-06-14T09:57:10;4.20;;;2.08;;
47778;SDS011;33538;48.432;11.350;2023-06-14T09:59:39;3.78;;;2.15;;
47778;SDS011;33538;48.432;11.350;2023-06-14T10:02:09;4.28;;;2.03;;
47778;SDS011;33538;48.432;11.350;2023-06-14T10:04:39;3.90;;;1.98;;
47778;SDS011;33538;48.432;11.350;2023-06-14T10:07:10;2.08;;;1.55;;
47778;SDS011;33538;48.432;11.350;2023-06-14T10:09:38;3.05;;;1.80;;
47778;SDS011;33538;48.432;11.350;2023-06-14T10:12:07;4.75;;;1.70;;
47778;SDS011;33538;48.432;11.350;2023-06-14T10:14:34;4.85;;;2.00;;
47778;SDS011;33538;48.432;11.350;2023-06-14T10:17:03;5.13;;;2.10;;
47778;SDS011;33538;48.432;11.350;2023-06-14T10:19:34;1.90;;;1.70;;
47778;SDS011;33538;48.432;11.350;2023-06-14T10:22:08;6.95;;;1.95;;
47778;SDS011;33538;48.432;11.350;2023-06-14T10:24:40;3.25;;;1.90;;
47778;SDS011;33538;48.432;11.350;2023-06-14T10:27:10;3.53;;;2.08;;
47778;SDS011;33538;48.432;11.350;2023-06-14T10:32:31;4.20;;;1.83;;
47778;SDS011;33538;48.432;11.350;2023-06-14T10:34:59;2.33;;;1.73;;
47778;SDS011;33538;48.432;11.350;2023-06-14T10:37:27;3.92;;;2.05;;
47778;SDS011;33538;48.432;11.350;2023-06-14T10:39:54;4.72;;;2.30;;
47778;SDS011;33538;48.432;11.350;2023-06-14T10:42:23;2.58;;;1.98;;
47778;SDS011;33538;48.432;11.350;2023-06-14T10:44:54;2.88;;;1.88;;
47778;SDS011;33538;48.432;11.350;2023-06-14T10:47:23;3.75;;;2.30;;
47778;SDS011;33538;48.432;11.350;2023-06-14T10:49:54;7.03;;;2.25;;
47778;SDS011;33538;48.432;11.350;2023-06-14T10:52:25;2.38;;;1.83;;
47778;SDS011;33538;48.432;11.350;2023-06-14T10:55:00;3.88;;;1.98;;
47778;SDS011;33538;48.432;11.350;2023-06-14T10:57:29;1.90;;;1.60;;
47778;SDS011;33538;48.432;11.350;2023-06-14T11:05:21;3.08;;;2.30;;
47778;SDS011;33538;48.432;11.350;2023-06-14T11:07:55;5.35;;;1.88;;
47778;SDS011;33538;48.432;11.350;2023-06-14T11:10:35;4.50;;;2.17;;
47778;SDS011;33538;48.432;11.350;2023-06-14T11:13:04;8.25;;;2.03;;
47778;SDS011;33538;48.432;11.350;2023-06-14T11:15:31;3.47;;;2.10;;
47778;SDS011;33538;48.432;11.350;2023-06-14T11:18:00;3.00;;;1.85;;
47778;SDS011;33538;48.432;11.350;2023-06-14T11:20:29;2.70;;;1.83;;
47778;SDS011;33538;48.432;11.350;2023-06-14T11:22:57;4.07;;;2.15;;
47778;SDS011;33538;48.432;11.350;2023-06-14T11:25:24;3.47;;;2.33;;
47778;SDS011;33538;48.432;11.350;2023-06-14T11:27:52;2.08;;;1.83;;
47778;SDS011;33538;48.432;11.350;2023-06-14T11:30:20;3.08;;;2.15;;
47778;SDS011;33538;48.432;11.350;2023-06-14T11:32:47;3.15;;;1.95;;
47778;SDS011;33538;48.432;11.350;2023-06-14T11:35:14;2.85;;;2.10;;
47778;SDS011;33538;48.432;11.350;2023-06-14T11:37:42;6.60;;;2.20;;
47778;SDS011;33538;48.432;11.350;2023-06-14T11:40:10;3.40;;;2.13;;
47778;SDS011;33538;48.432;11.350;2023-06-14T11:42:38;3.75;;;2.20;;
47778;SDS011;33538;48.432;11.350;2023-06-14T11:45:07;3.08;;;2.28;;
47778;SDS011;33538;48.432;11.350;2023-06-14T11:47:37;2.80;;;1.90;;
47778;SDS011;33538;48.432;11.350;2023-06-14T11:50:05;2.55;;;1.83;;
47778;SDS011;33538;48.432;11.350;2023-06-14T11:52:33;3.83;;;2.17;;
47778;SDS011;33538;48.432;11.350;2023-06-14T11:55:00;3.67;;;2.50;;
47778;SDS011;33538;48.432;11.350;2023-06-14T11:57:28;2.33;;;1.75;;
47778;SDS011;33538;48.432;11.350;2023-06-14T11:59:54;2.53;;;1.98;;
47778;SDS011;33538;48.432;11.350;2023-06-14T12:02:21;2.80;;;1.83;;
47778;SDS011;33538;48.432;11.350;2023-06-14T12:04:52;4.30;;;2.45;;
47778;SDS011;33538;48.432;11.350;2023-06-14T12:07:19;3.10;;;2.17;;
47778;SDS011;33538;48.432;11.350;2023-06-14T12:10:03;3.47;;;2.13;;
47778;SDS011;33538;48.432;11.350;2023-06-14T12:12:31;2.63;;;2.00;;
47778;SDS011;33538;48.432;11.350;2023-06-14T12:15:02;3.22;;;2.08;;
47778;SDS011;33538;48.432;11.350;2023-06-14T12:17:31;4.13;;;2.42;;
47778;SDS011;33538;48.432;11.350;2023-06-14T12:20:04;3.80;;;2.08;;
47778;SDS011;33538;48.432;11.350;2023-06-14T12:22:32;4.87;;;2.10;;
47778;SDS011;33538;48.432;11.350;2023-06-14T12:24:58;3.55;;;2.58;;
47778;SDS011;33538;48.432;11.350;2023-06-14T12:27:25;3.53;;;2.10;;
47778;SDS011;33538;48.432;11.350;2023-06-14T12:29:58;2.95;;;2.38;;
47778;SDS011;33538;48.432;11.350;2023-06-14T12:32:25;3.20;;;2.03;;
47778;SDS011;33538;48.432;11.350;2023-06-14T12:34:52;3.08;;;2.40;;
47778;SDS011;33538;48.432;11.350;2023-06-14T12:37:20;3.72;;;2.10;;
47778;SDS011;33538;48.432;11.350;2023-06-14T12:39:47;5.05;;;2.47;;
47778;SDS011;33538;48.432;11.350;2023-06-14T12:42:14;4.60;;;2.15;;
47778;SDS011;33538;48.432;11.350;2023-06-14T12:44:41;3.50;;;2.50;;
47778;SDS011;33538;48.432;11.350;2023-06-14T12:47:08;3.83;;;2.15;;
47778;SDS011;33538;48.432;11.350;2023-06-14T12:49:34;3.53;;;2.13;;
47778;SDS011;33538;48.432;11.350;2023-06-14T12:52:01;4.60;;;2.33;;
47778;SDS011;33538;48.432;11.350;2023-06-14T12:54:29;3.10;;;2.22;;
47778;SDS011;33538;48.432;11.350;2023-06-14T12:57:06;3.40;;;1.83;;
47778;SDS011;33538;48.432;11.350;2023-06-14T12:59:33;3.67;;;2.22;;
47778;SDS011;33538;48.432;11.350;2023-06-14T13:02:10;3.70;;;2.25;;
47778;SDS011;33538;48.432;11.350;2023-06-14T13:04:38;2.70;;;2.13;;
47778;SDS011;33538;48.432;11.350;2023-06-14T13:07:05;6.20;;;2.05;;
47778;SDS011;33538;48.432;11.350;2023-06-14T13:09:33;4.72;;;2.28;;
47778;SDS011;33538;48.432;11.350;2023-06-14T13:12:00;5.03;;;2.47;;
47778;SDS011;33538;48.432;11.350;2023-06-14T13:14:26;3.15;;;2.35;;
47778;SDS011;33538;48.432;11.350;2023-06-14T13:16:53;3.60;;;2.35;;
47778;SDS011;33538;48.432;11.350;2023-06-14T13:19:20;4.72;;;2.08;;
47778;SDS011;33538;48.432;11.350;2023-06-14T13:21:47;3.90;;;2.13;;
47778;SDS011;33538;48.432;11.350;2023-06-14T13:24:14;6.80;;;2.28;;
47778;SDS011;33538;48.432;11.350;2023-06-14T13:26:42;4.53;;;2.53;;
47778;SDS011;33538;48.432;11.350;2023-06-14T13:29:09;5.32;;;2.47;;
47778;SDS011;33538;48.432;11.350;2023-06-14T13:31:36;3.95;;;2.75;;
47778;SDS011;33538;48.432;11.350;2023-06-14T13:34:03;4.82;;;2.55;;
47778;SDS011;33538;48.432;11.350;2023-06-14T13:36:30;3.03;;;2.00;;
47778;SDS011;33538;48.432;11.350;2023-06-14T13:38:56;8.52;;;2.90;;
47778;SDS011;33538;48.432;11.350;2023-06-14T13:41:23;3.22;;;2.08;;
47778;SDS011;33538;48.432;11.350;2023-06-14T13:43:53;3.10;;;2.28;;
47778;SDS011;33538;48.432;11.350;2023-06-14T13:46:20;5.10;;;2.50;;
47778;SDS011;33538;48.432;11.350;2023-06-14T13:48:47;4.88;;;2.25;;
47778;SDS011;33538;48.432;11.350;2023-06-14T13:51:14;4.35;;;2.13;;
47778;SDS011;33538;48.432;11.350;2023-06-14T13:53:41;4.15;;;2.33;;
47778;SDS011;33538;48.432;11.350;2023-06-14T13:56:08;2.50;;;2.17;;
47778;SDS011;33538;48.432;11.350;2023-06-14T13:58:34;2.78;;;2.08;;
47778;SDS011;33538;48.432;11.350;2023-06-14T14:01:03;3.38;;;2.20;;
47778;SDS011;33538;48.432;11.350;2023-06-14T14:03:29;2.40;;;2.15;;
47778;SDS011;33538;48.432;11.350;2023-06-14T14:05:56;3.60;;;2.58;;
47778;SDS011;33538;48.432;11.350;2023-06-14T14:08:27;3.85;;;2.03;;
47778;SDS011;33538;48.432;11.350;2023-06-14T14:10:53;2.72;;;1.92;;
47778;SDS011;33538;48.432;11.350;2023-06-14T14:13:20;4.05;;;2.50;;
47778;SDS011;33538;48.432;11.350;2023-06-14T14:15:47;3.10;;;2.40;;
47778;SDS011;33538;48.432;11.350;2023-06-14T14:18:15;3.90;;;1.90;;
47778;SDS011;33538;48.432;11.350;2023-06-14T14:20:42;3.10;;;2.25;;
47778;SDS011;33538;48.432;11.350;2023-06-14T14:23:09;3.85;;;2.10;;
47778;SDS011;33538;48.432;11.350;2023-06-14T14:25:36;2.88;;;2.08;;
47778;SDS011;33538;48.432;11.350;2023-06-14T14:28:03;4.65;;;2.17;;
47778;SDS011;33538;48.432;11.350;2023-06-14T14:30:30;2.95;;;2.45;;
47778;SDS011;33538;48.432;11.350;2023-06-14T14:32:56;7.25;;;2.47;;
47778;SDS011;33538;48.432;11.350;2023-06-14T14:35:25;3.42;;;2.35;;
47778;SDS011;33538;48.432;11.350;2023-06-14T14:37:51;4.18;;;2.03;;
47778;SDS011;33538;48.432;11.350;2023-06-14T14:40:18;3.25;;;2.50;;
47778;SDS011;33538;48.432;11.350;2023-06-14T14:42:45;3.95;;;2.25;;
47778;SDS011;33538;48.432;11.350;2023-06-14T14:45:12;4.05;;;2.25;;